createdAt,value
2022-08-02T00:01:15.380Z,98226.50
2022-08-02T00:04:05.670Z,98223.44
2022-08-02T00:06:54.138Z,98228.63
2022-08-02T00:09:42.738Z,98234.25
2022-08-02T00:12:31.187Z,98232.00
2022-08-02T00:15:19.743Z,98229.56
2022-08-02T00:18:08.146Z,98233.38
2022-08-02T00:20:58.065Z,98236.28
2022-08-02T00:24:27.793Z,98238.38
2022-08-02T00:26:54.871Z,98232.19
2022-08-02T00:29:53.260Z,98237.59
2022-08-02T00:32:43.078Z,98237.69
2022-08-02T00:35:31.555Z,98244.44
2022-08-02T00:38:21.311Z,98245.41
2022-08-02T00:41:14.337Z,98253.91
2022-08-02T00:44:02.764Z,98258.25
2022-08-02T00:46:51.313Z,98260.00
2022-08-02T00:49:39.814Z,98265.94
2022-08-02T00:52:28.462Z,98269.59
2022-08-02T00:55:18.760Z,98259.38
2022-08-02T00:58:19.344Z,98264.50
2022-08-02T01:01:08.633Z,98266.34
2022-08-02T01:03:57.115Z,98274.41
2022-08-02T01:06:45.470Z,98275.16
2022-08-02T01:09:34.022Z,98275.16
2022-08-02T01:12:23.831Z,98277.78
2022-08-02T01:15:13.749Z,98279.38
2022-08-02T01:18:07.244Z,98279.50
2022-08-02T01:21:19.814Z,98281.94
2022-08-02T01:24:32.365Z,98282.06
2022-08-02T01:27:34.824Z,98277.81
2022-08-02T01:30:24.883Z,98280.84
2022-08-02T01:33:17.999Z,98277.31
2022-08-02T01:36:11.059Z,98286.91
2022-08-02T01:39:02.164Z,98269.56
2022-08-02T01:41:57.392Z,98288.22
2022-08-02T01:44:50.371Z,98285.59
2022-08-02T01:47:42.840Z,98280.53
2022-08-02T01:50:34.857Z,98284.63
2022-08-02T01:53:25.428Z,98290.63
2022-08-02T01:56:15.169Z,98300.88
2022-08-02T01:59:06.691Z,98292.03
2022-08-02T02:01:57.381Z,98299.59
2022-08-02T02:04:50.217Z,98293.88
2022-08-02T02:07:40.617Z,98291.22
2022-08-02T02:10:32.525Z,98286.97
2022-08-02T02:13:28.775Z,98289.06
2022-08-02T02:16:23.943Z,98288.41
2022-08-02T02:19:20.960Z,98291.31
2022-08-02T02:22:12.196Z,98286.34
2022-08-02T02:25:01.110Z,98292.47
2022-08-02T02:27:56.616Z,98286.88
2022-08-02T02:30:50.897Z,98289.81
2022-08-02T02:33:42.753Z,98296.78
2022-08-02T02:36:34.660Z,98298.88
2022-08-02T02:39:26.165Z,98303.09
2022-08-02T02:42:17.395Z,98297.81
2022-08-02T02:45:07.285Z,98303.25
2022-08-02T02:47:57.113Z,98305.50
2022-08-02T02:50:46.631Z,98302.03
2022-08-02T02:54:30.605Z,98308.41
2022-08-02T02:56:47.256Z,98303.16
2022-08-02T02:59:42.595Z,98311.94
2022-08-02T03:02:39.991Z,98315.16
2022-08-02T03:05:28.706Z,98307.19
2022-08-02T03:08:17.281Z,98308.75
2022-08-02T03:11:09.977Z,98306.25
2022-08-02T03:14:01.628Z,98314.00
2022-08-02T03:16:52.229Z,98306.28
2022-08-02T03:19:40.545Z,98308.09
2022-08-02T03:22:28.932Z,98319.25
2022-08-02T03:25:18.845Z,98307.31
2022-08-02T03:28:07.437Z,98310.00
2022-08-02T03:30:57.245Z,98315.25
2022-08-02T03:33:46.858Z,98307.66
2022-08-02T03:36:36.882Z,98314.00
2022-08-02T03:39:27.168Z,98316.91
2022-08-02T03:42:16.924Z,98319.47
2022-08-02T03:45:09.270Z,98321.28
2022-08-02T03:47:59.745Z,98320.69
2022-08-02T03:50:49.376Z,98315.97
2022-08-02T03:53:41.691Z,98323.09
2022-08-02T03:56:30.712Z,98323.56
2022-08-02T03:59:19.178Z,98329.06
2022-08-02T04:02:07.878Z,98340.72
2022-08-02T04:04:57.813Z,98337.00
2022-08-02T04:08:33.693Z,98343.91
2022-08-02T04:11:12.296Z,98339.09
2022-08-02T04:14:02.839Z,98349.72
2022-08-02T04:16:55.166Z,98352.69
2022-08-02T04:19:49.990Z,98359.72
2022-08-02T04:22:45.974Z,98353.50
2022-08-02T04:25:40.583Z,98352.84
2022-08-02T04:28:30.942Z,98356.34
2022-08-02T04:31:21.074Z,98357.63
2022-08-02T04:34:14.715Z,98359.41
2022-08-02T04:37:04.071Z,98353.19
2022-08-02T04:39:53.929Z,98359.66
2022-08-02T04:42:42.765Z,98369.00
2022-08-02T04:45:32.168Z,98360.34
2022-08-02T04:48:20.728Z,98367.81
2022-08-02T04:51:09.160Z,98374.81
2022-08-02T04:54:06.439Z,98372.47
2022-08-02T04:56:59.938Z,98374.72
2022-08-02T04:59:52.789Z,98365.50
2022-08-02T05:02:42.823Z,98372.13
2022-08-02T05:05:31.235Z,98376.19
2022-08-02T05:08:19.647Z,98376.22
2022-08-02T05:11:07.951Z,98379.34
2022-08-02T05:13:59.451Z,98382.91
2022-08-02T05:16:48.020Z,98386.78
2022-08-02T05:19:36.537Z,98384.03
2022-08-02T05:22:24.962Z,98387.88
2022-08-02T05:25:13.962Z,98392.38
2022-08-02T05:28:02.402Z,98392.13
2022-08-02T05:30:52.331Z,98398.41
2022-08-02T05:33:40.736Z,98399.69
2022-08-02T05:36:29.223Z,98400.56
2022-08-02T05:39:18.920Z,98395.25
2022-08-02T05:42:08.589Z,98409.69
2022-08-02T05:44:57.407Z,98412.41
2022-08-02T05:47:47.341Z,98416.25
2022-08-02T05:50:40.366Z,98413.59
2022-08-02T05:53:38.248Z,98415.44
2022-08-02T05:56:34.222Z,98416.88
2022-08-02T05:59:33.531Z,98418.81
2022-08-02T06:02:31.458Z,98418.41
2022-08-02T06:05:22.855Z,98419.88
2022-08-02T06:08:14.414Z,98422.53
2022-08-02T06:11:05.356Z,98424.25
2022-08-02T06:13:54.728Z,98421.16
2022-08-02T06:16:45.104Z,98432.09
2022-08-02T06:19:36.593Z,98433.19
2022-08-02T06:22:43.883Z,98439.44
2022-08-02T06:25:50.061Z,98434.97
2022-08-02T06:28:40.916Z,98434.63
2022-08-02T06:31:29.974Z,98432.34
2022-08-02T06:34:18.338Z,98440.41
2022-08-02T06:37:12.620Z,98445.44
2022-08-02T06:40:07.384Z,98448.53
2022-08-02T06:43:08.250Z,98454.75
2022-08-02T06:45:56.874Z,98472.47
2022-08-02T06:49:05.717Z,98466.78
2022-08-02T06:51:54.262Z,98480.69
2022-08-02T06:54:42.692Z,98483.25
2022-08-02T06:57:32.997Z,98469.38
2022-08-02T07:00:21.595Z,98476.84
2022-08-02T07:03:10.287Z,98469.78
2022-08-02T07:05:58.741Z,98459.66
2022-08-02T07:09:04.956Z,98464.84
2022-08-02T07:11:55.871Z,98465.16
2022-08-02T07:14:45.695Z,98457.69
2022-08-02T07:17:34.281Z,98458.16
2022-08-02T07:20:22.894Z,98462.97
2022-08-02T07:23:11.346Z,98464.09
2022-08-02T07:26:02.590Z,98455.47
2022-08-02T07:28:52.723Z,98460.44
2022-08-02T07:31:42.442Z,98456.38
2022-08-02T07:34:30.875Z,98458.38
2022-08-02T07:37:29.820Z,98461.59
2022-08-02T07:40:27.962Z,98460.50
2022-08-02T07:43:17.077Z,98484.06
2022-08-02T07:46:05.461Z,98472.38
2022-08-02T07:48:55.201Z,98475.84
2022-08-02T07:51:43.676Z,98473.84
2022-08-02T07:54:33.934Z,98493.59
2022-08-02T07:57:22.331Z,98482.56
2022-08-02T08:00:11.700Z,98477.63
2022-08-02T08:03:00.491Z,98471.31
2022-08-02T08:05:50.392Z,98469.44
2022-08-02T08:08:38.913Z,98474.03
2022-08-02T08:11:27.457Z,98472.09
2022-08-02T08:14:16.978Z,98465.41
2022-08-02T08:17:05.860Z,98469.47
2022-08-02T08:19:54.311Z,98481.06
2022-08-02T08:22:44.133Z,98469.03
2022-08-02T08:25:32.667Z,98469.28
2022-08-02T08:28:28.494Z,98469.06
2022-08-02T08:31:16.853Z,98471.19
2022-08-02T08:34:05.986Z,98475.09
2022-08-02T08:36:54.443Z,98474.75
2022-08-02T08:39:57.922Z,98476.97
2022-08-02T08:42:47.241Z,98477.66
2022-08-02T08:45:35.882Z,98480.94
2022-08-02T08:48:30.416Z,98487.56
2022-08-02T08:51:23.090Z,98487.66
2022-08-02T08:54:16.396Z,98475.84
2022-08-02T08:57:07.894Z,98492.53
2022-08-02T08:59:56.426Z,98483.78
2022-08-02T09:02:45.359Z,98490.91
2022-08-02T09:05:36.386Z,98485.03
2022-08-02T09:08:25.119Z,98487.31
2022-08-02T09:11:18.123Z,98486.34
2022-08-02T09:14:07.925Z,98477.97
2022-08-02T09:17:08.037Z,98479.88
2022-08-02T09:20:08.690Z,98494.47
2022-08-02T09:23:07.672Z,98484.84
2022-08-02T09:26:06.981Z,98500.28
2022-08-02T09:29:02.140Z,98481.88
2022-08-02T09:31:52.832Z,98482.44
2022-08-02T09:34:46.178Z,98480.53
2022-08-02T09:37:34.522Z,98492.94
2022-08-02T09:40:37.304Z,98478.84
2022-08-02T09:43:37.280Z,98509.13
2022-08-02T09:46:28.297Z,98478.34
2022-08-02T09:49:20.245Z,98491.53
2022-08-02T09:52:08.954Z,98480.78
2022-08-02T09:55:04.930Z,98485.66
2022-08-02T09:57:53.444Z,98489.63
2022-08-02T10:00:53.783Z,98496.22
2022-08-02T10:03:58.894Z,98490.41
2022-08-02T10:06:50.965Z,98485.66
2022-08-02T10:09:46.438Z,98471.25
2022-08-02T10:12:37.912Z,98483.25
2022-08-02T10:15:27.579Z,98475.13
2022-08-02T10:18:37.197Z,98470.69
2022-08-02T10:21:30.870Z,98467.03
2022-08-02T10:24:23.814Z,98453.75
2022-08-02T10:27:16.324Z,98461.88
2022-08-02T10:30:05.121Z,98474.38
2022-08-02T10:32:55.197Z,98463.56
2022-08-02T10:35:44.019Z,98454.91
2022-08-02T10:38:33.021Z,98468.06
2022-08-02T10:41:47.925Z,98467.38
2022-08-02T10:44:37.881Z,98466.84
2022-08-02T10:47:27.245Z,98463.75
2022-08-02T10:50:15.754Z,98480.47
2022-08-02T10:53:26.031Z,98474.63
2022-08-02T10:56:15.004Z,98469.69
2022-08-02T10:59:29.409Z,98471.47
2022-08-02T11:02:36.914Z,98473.75
2022-08-02T11:05:42.159Z,98493.84
2022-08-02T11:08:31.089Z,98486.00
2022-08-02T11:11:20.522Z,98473.81
2022-08-02T11:14:30.595Z,98479.97
2022-08-02T11:17:20.376Z,98465.53
2022-08-02T11:20:27.366Z,98470.25
2022-08-02T11:23:43.981Z,98452.88
2022-08-02T11:26:44.828Z,98451.03
2022-08-02T11:29:39.929Z,98432.81
2022-08-02T11:32:30.713Z,98483.66
2022-08-02T11:35:19.974Z,98458.59
2022-08-02T11:38:20.150Z,98464.22
2022-08-02T11:41:09.894Z,98476.78
2022-08-02T11:43:58.974Z,98481.84
2022-08-02T11:46:55.434Z,98475.72
2022-08-02T11:49:44.868Z,98488.34
2022-08-02T11:52:34.601Z,98472.59
2022-08-02T11:55:28.630Z,98475.75
2022-08-02T11:58:18.016Z,98471.25
2022-08-02T12:01:07.148Z,98458.66
2022-08-02T12:04:00.979Z,98466.53
2022-08-02T12:06:57.037Z,98476.19
2022-08-02T12:09:45.462Z,98489.38
2022-08-02T12:12:33.939Z,98480.69
2022-08-02T12:15:36.866Z,98466.25
2022-08-02T12:18:43.215Z,98470.75
2022-08-02T12:21:32.981Z,98464.75
2022-08-02T12:24:30.929Z,98484.81
2022-08-02T12:27:33.574Z,98460.19
2022-08-02T12:30:27.472Z,98469.31
2022-08-02T12:33:16.378Z,98475.63
2022-08-02T12:36:15.507Z,98464.19
2022-08-02T12:39:11.677Z,98452.38
2022-08-02T12:42:00.056Z,98465.78
2022-08-02T12:44:53.296Z,98471.28
2022-08-02T12:47:47.156Z,98464.75
2022-08-02T12:50:37.616Z,98464.28
2022-08-02T12:53:34.665Z,98475.31
2022-08-02T12:56:33.508Z,98484.59
2022-08-02T12:59:38.478Z,98478.56
2022-08-02T13:02:27.600Z,98474.97
2022-08-02T13:05:16.177Z,98457.63
2022-08-02T13:08:06.442Z,98465.72
2022-08-02T13:10:54.825Z,98458.47
2022-08-02T13:13:45.201Z,98465.47
2022-08-02T13:16:33.801Z,98467.91
2022-08-02T13:19:22.356Z,98464.44
2022-08-02T13:22:10.938Z,98464.41
2022-08-02T13:24:59.522Z,98458.69
2022-08-02T13:27:47.963Z,98461.19
2022-08-02T13:30:37.939Z,98459.31
2022-08-02T13:33:26.306Z,98462.28
2022-08-02T13:36:14.672Z,98459.03
2022-08-02T13:39:04.123Z,98471.28
2022-08-02T13:41:52.930Z,98450.75
2022-08-02T13:44:41.415Z,98462.47
2022-08-02T13:47:36.252Z,98461.53
2022-08-02T13:50:39.980Z,98456.47
2022-08-02T13:53:28.566Z,98431.75
2022-08-02T13:56:17.931Z,98450.16
2022-08-02T13:59:54.629Z,98463.88
2022-08-02T14:02:18.101Z,98448.69
2022-08-02T14:05:09.329Z,98452.41
2022-08-02T14:08:00.181Z,98449.94
2022-08-02T14:10:51.187Z,98438.63
2022-08-02T14:13:39.657Z,98445.38
2022-08-02T14:16:30.362Z,98457.16
2022-08-02T14:19:22.030Z,98435.63
2022-08-02T14:22:21.289Z,98444.41
2022-08-02T14:25:11.048Z,98446.50
2022-08-02T14:27:59.539Z,98447.66
2022-08-02T14:30:48.044Z,98437.03
2022-08-02T14:33:36.434Z,98444.88
2022-08-02T14:36:27.171Z,98448.81
2022-08-02T14:39:18.511Z,98433.69
2022-08-02T14:42:07.937Z,98441.00
2022-08-02T14:44:56.347Z,98447.53
2022-08-02T14:47:44.807Z,98444.00
2022-08-02T14:50:33.920Z,98444.63
2022-08-02T14:53:22.535Z,98444.81
2022-08-02T14:56:12.393Z,98452.88
2022-08-02T14:59:01.033Z,98443.69
2022-08-02T15:01:49.511Z,98444.06
2022-08-02T15:04:42.499Z,98431.69
2022-08-02T15:07:31.914Z,98423.44
2022-08-02T15:10:20.246Z,98411.66
2022-08-02T15:13:09.973Z,98415.09
2022-08-02T15:15:58.538Z,98424.25
2022-08-02T15:18:46.937Z,98432.09
2022-08-02T15:21:41.766Z,98435.50
2022-08-02T15:24:30.934Z,98427.88
2022-08-02T15:27:19.433Z,98431.22
2022-08-02T15:30:09.902Z,98422.59
2022-08-02T15:32:58.273Z,98421.50
2022-08-02T15:35:46.728Z,98428.44
2022-08-02T15:38:35.329Z,98420.19
2022-08-02T15:41:23.747Z,98421.50
2022-08-02T15:44:14.021Z,98428.50
2022-08-02T15:47:07.055Z,98423.03
2022-08-02T15:49:55.503Z,98428.28
2022-08-02T15:52:43.936Z,98439.72
2022-08-02T15:55:52.036Z,98440.53
2022-08-02T15:58:40.785Z,98434.72
2022-08-02T16:01:38.371Z,98441.56
2022-08-02T16:04:29.312Z,98437.03
2022-08-02T16:07:17.745Z,98446.69
2022-08-02T16:10:06.930Z,98450.66
2022-08-02T16:13:15.409Z,98439.44
2022-08-02T16:16:03.686Z,98434.22
2022-08-02T16:18:52.180Z,98426.47
2022-08-02T16:21:42.112Z,98431.34
2022-08-02T16:24:30.853Z,98424.44
2022-08-02T16:27:19.578Z,98430.16
2022-08-02T16:30:09.704Z,98431.22
2022-08-02T16:32:58.202Z,98435.41
2022-08-02T16:35:47.910Z,98442.13
2022-08-02T16:38:37.755Z,98451.69
2022-08-02T16:41:50.204Z,98448.47
2022-08-02T16:44:34.859Z,98438.00
2022-08-02T16:47:36.992Z,98429.03
2022-08-02T16:50:31.795Z,98450.59
2022-08-02T16:53:36.603Z,98430.59
2022-08-02T16:56:27.152Z,98439.28
2022-08-02T16:59:15.758Z,98448.97
2022-08-02T17:02:15.327Z,98450.50
2022-08-02T17:05:13.474Z,98452.16
2022-08-02T17:08:15.086Z,98458.41
2022-08-02T17:11:05.831Z,98454.84
2022-08-02T17:13:55.530Z,98455.69
2022-08-02T17:16:43.904Z,98452.78
2022-08-02T17:19:35.299Z,98455.91
2022-08-02T17:22:26.726Z,98454.78
2022-08-02T17:25:17.145Z,98458.09
2022-08-02T17:28:05.984Z,98454.47
2022-08-02T17:30:59.174Z,98457.47
2022-08-02T17:33:49.226Z,98454.06
2022-08-02T17:36:37.621Z,98463.19
2022-08-02T17:39:33.575Z,98460.66
2022-08-02T17:42:24.151Z,98464.16
2022-08-02T17:45:25.354Z,98471.72
2022-08-02T17:48:15.721Z,98470.19
2022-08-02T17:51:04.336Z,98467.94
2022-08-02T17:53:52.746Z,98471.53
2022-08-02T17:56:45.097Z,98467.63
2022-08-02T17:59:41.816Z,98474.09
2022-08-02T18:02:30.655Z,98470.16
2022-08-02T18:05:20.943Z,98466.72
2022-08-02T18:08:09.337Z,98467.59
2022-08-02T18:10:58.579Z,98471.13
2022-08-02T18:13:53.169Z,98473.25
2022-08-02T18:16:55.627Z,98471.94
2022-08-02T18:19:53.939Z,98480.59
2022-08-02T18:22:47.448Z,98472.75
2022-08-02T18:25:46.647Z,98468.22
2022-08-02T18:28:36.122Z,98480.91
2022-08-02T18:31:25.253Z,98487.03
2022-08-02T18:34:13.998Z,98490.06
2022-08-02T18:37:02.913Z,98485.75
2022-08-02T18:39:52.659Z,98484.34
2022-08-02T18:42:41.097Z,98493.41
2022-08-02T18:46:06.031Z,98493.22
2022-08-02T18:48:38.471Z,98500.09
2022-08-02T18:51:27.317Z,98500.69
2022-08-02T18:58:18.592Z,98497.13
2022-08-02T19:00:44.995Z,98506.72
2022-08-02T19:03:37.011Z,98512.34
2022-08-02T19:06:27.588Z,98515.00
2022-08-02T19:09:17.675Z,98512.72
2022-08-02T19:12:06.443Z,98516.47
2022-08-02T19:14:56.459Z,98515.88
2022-08-02T19:17:55.119Z,98527.22
2022-08-02T19:20:48.118Z,98533.34
2022-08-02T19:23:37.502Z,98538.94
2022-08-02T19:26:42.838Z,98537.81
2022-08-02T19:29:43.086Z,98545.28
2022-08-02T19:32:59.480Z,98539.88
2022-08-02T19:36:01.287Z,98545.66
2022-08-02T19:38:52.252Z,98547.59
2022-08-02T19:41:43.977Z,98547.16
2022-08-02T19:44:35.382Z,98549.97
2022-08-02T19:47:23.895Z,98550.25
2022-08-02T19:50:15.045Z,98543.38
2022-08-02T19:53:03.476Z,98545.75
2022-08-02T19:56:01.624Z,98551.81
2022-08-02T19:58:52.064Z,98558.38
2022-08-02T20:01:44.772Z,98554.06
2022-08-02T20:04:35.185Z,98554.63
2022-08-02T20:07:54.859Z,98553.41
2022-08-02T20:10:34.749Z,98543.47
2022-08-02T20:13:24.778Z,98547.41
2022-08-02T20:16:20.910Z,98542.91
2022-08-02T20:19:16.637Z,98546.22
2022-08-02T20:22:05.125Z,98539.59
2022-08-02T20:24:56.748Z,98544.94
2022-08-02T20:27:50.919Z,98540.00
2022-08-02T20:30:40.194Z,98536.63
2022-08-02T20:33:28.543Z,98533.34
2022-08-02T20:36:16.995Z,98532.28
2022-08-02T20:39:05.761Z,98535.75
2022-08-02T20:41:57.180Z,98543.00
2022-08-02T20:44:47.516Z,98537.53
2022-08-02T20:47:39.603Z,98544.03
2022-08-02T20:50:46.165Z,98543.25
2022-08-02T20:53:54.749Z,98538.97
2022-08-02T20:56:44.622Z,98537.94
2022-08-02T20:59:40.857Z,98541.22
2022-08-02T21:02:31.641Z,98538.06
2022-08-02T21:05:20.571Z,98540.47
2022-08-02T21:08:15.780Z,98531.22
2022-08-02T21:11:09.380Z,98527.19
2022-08-02T21:14:07.973Z,98529.13
2022-08-02T21:16:59.127Z,98533.63
2022-08-02T21:19:50.371Z,98532.56
2022-08-02T21:22:38.866Z,98528.81
2022-08-02T21:25:50.676Z,98526.16
2022-08-02T21:28:44.850Z,98530.88
2022-08-02T21:31:35.706Z,98533.50
2022-08-02T21:34:27.185Z,98535.59
2022-08-02T21:37:16.813Z,98538.41
2022-08-02T21:40:06.175Z,98531.00
2022-08-02T21:42:57.967Z,98540.09
2022-08-02T21:45:53.782Z,98543.66
2022-08-02T21:48:44.557Z,98551.25
2022-08-02T21:51:34.518Z,98545.72
2022-08-02T21:54:23.812Z,98536.03
2022-08-02T21:57:16.230Z,98541.72
2022-08-02T22:00:10.718Z,98545.22
2022-08-02T22:02:59.221Z,98546.81
2022-08-02T22:06:08.167Z,98532.41
2022-08-02T22:08:58.061Z,98533.50
2022-08-02T22:11:46.629Z,98538.75
2022-08-02T22:14:36.884Z,98532.47
2022-08-02T22:17:50.570Z,98534.59
2022-08-02T22:20:38.639Z,98533.81
2022-08-02T22:23:38.753Z,98533.06
2022-08-02T22:26:39.180Z,98542.66
2022-08-02T22:29:27.918Z,98541.75
2022-08-02T22:32:36.441Z,98541.09
2022-08-02T22:35:25.192Z,98538.81
2022-08-02T22:38:18.406Z,98543.34
2022-08-02T22:41:07.089Z,98540.59
2022-08-02T22:43:59.207Z,98548.97
2022-08-02T22:46:49.754Z,98537.81
2022-08-02T22:49:45.460Z,98542.50
2022-08-02T22:52:41.513Z,98542.13
2022-08-02T22:55:35.556Z,98538.13
2022-08-02T22:58:29.821Z,98548.53
2022-08-02T22:58:58.055Z,98499.94
2022-08-02T23:01:19.688Z,98547.09
2022-08-02T23:04:08.285Z,98548.53
2022-08-02T23:06:56.668Z,98550.53
2022-08-02T23:09:45.113Z,98548.00
2022-08-02T23:12:33.697Z,98542.91
2022-08-02T23:15:22.335Z,98544.09
2022-08-02T23:18:29.610Z,98552.31
2022-08-02T23:21:46.161Z,98551.34
2022-08-02T23:24:27.922Z,98543.28
2022-08-02T23:27:16.742Z,98545.13
2022-08-02T23:30:06.434Z,98541.13
2022-08-02T23:32:54.865Z,98543.78
2022-08-02T23:35:44.750Z,98534.72
2022-08-02T23:38:33.131Z,98533.91
2022-08-02T23:41:21.576Z,98524.94
2022-08-02T23:44:14.774Z,98541.78
2022-08-02T23:47:03.630Z,98534.47
2022-08-02T23:49:52.128Z,98533.81
2022-08-02T23:52:41.980Z,98544.78
2022-08-02T23:55:30.421Z,98537.94
2022-08-02T23:58:18.993Z,98538.13
